Time;durP1;ratioP1;P1;durP2;ratioP2;P2;SDS_P1;SDS_P2;PMS_P1;PMS_P2;Temp;Humidity;BMP_temperature;BMP_pressure;BME280_temperature;BME280_humidity;BME280_pressure;Samples;Min_cycle;Max_cycle;Signal;HPM_P1;HPM_P2
2022/11/17 00:01:35;;;;;;;9.05;3.33;;;;;;;;;;5129896;27;20047;-76
2022/11/17 00:04:03;;;;;;;9.60;3.92;;;;;;;;;;5139562;27;20058;-76
2022/11/17 00:06:32;;;;;;;11.15;3.53;;;;;;;;;;5127222;27;20051;-77
2022/11/17 00:09:06;;;;;;;11.93;3.72;;;;;;;;;;5138016;27;20076;-77
2022/11/17 00:14:31;;;;;;;9.60;3.40;;;;;;;;;;5141486;27;20138;-77
2022/11/17 00:14:33;;;;;;;7.53;3.40;;;;;;;;;;5136143;27;20994;-77
2022/11/17 00:17:01;;;;;;;10.30;3.80;;;;;;;;;;5142499;27;20495;-77
2022/11/17 00:22:14;;;;;;;11.65;4.03;;;;;;;;;;5140203;27;20047;-77
2022/11/17 00:24:42;;;;;;;8.93;3.72;;;;;;;;;;5138983;27;20047;-77
2022/11/17 00:27:09;;;;;;;9.82;4.03;;;;;;;;;;5142032;27;20420;-77
2022/11/17 00:29:37;;;;;;;11.02;4.15;;;;;;;;;;5147217;27;20047;-77
2022/11/17 00:34:51;;;;;;;12.43;4.47;;;;;;;;;;5138385;27;21203;-77
2022/11/17 00:37:18;;;;;;;8.13;3.85;;;;;;;;;;5140385;27;20079;-77
2022/11/17 00:39:46;;;;;;;13.45;4.00;;;;;;;;;;5149114;27;20048;-77
2022/11/17 00:42:13;;;;;;;7.78;4.03;;;;;;;;;;5148551;27;20043;-77
2022/11/17 00:44:44;;;;;;;16.00;4.03;;;;;;;;;;5127780;27;20055;-78
2022/11/17 00:47:11;;;;;;;9.25;4.00;;;;;;;;;;5149643;27;20492;-78
2022/11/17 00:49:38;;;;;;;14.75;4.13;;;;;;;;;;5123712;27;20055;-78
2022/11/17 00:52:05;;;;;;;11.77;4.10;;;;;;;;;;5142384;27;20059;-78
2022/11/17 00:54:33;;;;;;;9.55;4.15;;;;;;;;;;5143648;27;20047;-78
2022/11/17 00:57:02;;;;;;;13.80;4.05;;;;;;;;;;5148386;27;20721;-78
2022/11/17 00:59:33;;;;;;;11.43;3.88;;;;;;;;;;5123095;27;20171;-78
2022/11/17 01:02:03;;;;;;;8.98;3.67;;;;;;;;;;5139856;27;20059;-78
2022/11/17 01:04:30;;;;;;;10.80;4.25;;;;;;;;;;5141464;27;20060;-78
2022/11/17 01:06:58;;;;;;;16.35;4.50;;;;;;;;;;5128995;27;20536;-78
2022/11/17 01:09:25;;;;;;;12.20;4.30;;;;;;;;;;5136716;27;20055;-78
2022/11/17 01:11:53;;;;;;;15.32;4.50;;;;;;;;;;5146794;27;20039;-79
2022/11/17 01:14:22;;;;;;;11.68;4.47;;;;;;;;;;5145096;27;20097;-78
2022/11/17 01:16:49;;;;;;;8.27;4.00;;;;;;;;;;5148807;27;20047;-79
2022/11/17 01:19:17;;;;;;;12.98;4.28;;;;;;;;;;5128234;27;20047;-78
2022/11/17 01:21:47;;;;;;;10.57;4.38;;;;;;;;;;5143027;27;20047;-78
2022/11/17 01:24:16;;;;;;;11.68;4.38;;;;;;;;;;5128622;27;20135;-78
2022/11/17 01:26:45;;;;;;;12.73;4.55;;;;;;;;;;5139034;27;20055;-78
2022/11/17 01:29:13;;;;;;;8.65;4.30;;;;;;;;;;5131611;27;21007;-78
2022/11/17 01:31:44;;;;;;;10.63;4.40;;;;;;;;;;5148073;27;20059;-78
2022/11/17 01:34:11;;;;;;;16.23;4.95;;;;;;;;;;5132169;27;20059;-79
2022/11/17 01:39:28;;;;;;;7.68;3.90;;;;;;;;;;5140192;27;20646;-78
2022/11/17 01:41:55;;;;;;;10.45;4.20;;;;;;;;;;5130008;27;20047;-78
2022/11/17 01:44:35;;;;;;;8.68;4.10;;;;;;;;;;5138781;27;20046;-78
2022/11/17 01:47:03;;;;;;;8.55;3.80;;;;;;;;;;5147981;27;20044;-78
2022/11/17 01:49:32;;;;;;;10.68;3.65;;;;;;;;;;5150308;27;20047;-78
2022/11/17 01:52:01;;;;;;;10.30;4.07;;;;;;;;;;5143838;27;20096;-78
2022/11/17 01:54:29;;;;;;;6.85;3.28;;;;;;;;;;5132351;27;20058;-78
2022/11/17 01:56:59;;;;;;;5.85;2.95;;;;;;;;;;5141846;27;20054;-78
2022/11/17 01:59:39;;;;;;;9.68;3.63;;;;;;;;;;5151316;27;20047;-79
2022/11/17 02:02:07;;;;;;;8.50;2.95;;;;;;;;;;5117846;27;20051;-79
2022/11/17 02:04:43;;;;;;;9.13;3.03;;;;;;;;;;5132372;27;20767;-78
2022/11/17 02:07:19;;;;;;;6.50;2.97;;;;;;;;;;5147187;27;20043;-79
2022/11/17 02:09:47;;;;;;;6.03;2.88;;;;;;;;;;5139112;27;20189;-78
2022/11/17 02:12:15;;;;;;;6.00;2.60;;;;;;;;;;5143302;27;20415;-79
2022/11/17 02:14:42;;;;;;;4.45;2.40;;;;;;;;;;5142840;27;20073;-78
2022/11/17 02:17:10;;;;;;;5.40;2.42;;;;;;;;;;5128829;27;20047;-78
2022/11/17 02:19:41;;;;;;;5.05;2.50;;;;;;;;;;5145039;27;20055;-79
2022/11/17 02:22:09;;;;;;;4.78;2.45;;;;;;;;;;5147445;27;20825;-79
2022/11/17 02:24:51;;;;;;;5.85;2.45;;;;;;;;;;5144238;27;20562;-79
2022/11/17 02:27:21;;;;;;;5.43;2.53;;;;;;;;;;5138407;27;21377;-78
2022/11/17 02:29:54;;;;;;;3.10;2.05;;;;;;;;;;5148399;27;20058;-78
2022/11/17 02:32:21;;;;;;;5.30;2.30;;;;;;;;;;5126897;27;20044;-78
2022/11/17 02:35:09;;;;;;;6.53;2.55;;;;;;;;;;5149176;27;20088;-78
2022/11/17 02:37:36;;;;;;;6.13;2.70;;;;;;;;;;5097007;27;20046;-78
2022/11/17 02:40:06;;;;;;;6.10;2.45;;;;;;;;;;5127469;27;20146;-78
2022/11/17 02:45:29;;;;;;;5.40;2.45;;;;;;;;;;5149185;27;20042;-78
2022/11/17 02:48:04;;;;;;;5.72;2.50;;;;;;;;;;5142586;27;20047;-78
2022/11/17 02:50:35;;;;;;;10.70;3.00;;;;;;;;;;5126947;27;20071;-78
2022/11/17 02:53:02;;;;;;;7.32;2.42;;;;;;;;;;5148072;27;20035;-78
2022/11/17 02:55:32;;;;;;;6.93;2.40;;;;;;;;;;5141529;27;20051;-78
2022/11/17 02:57:59;;;;;;;4.65;2.42;;;;;;;;;;5140602;27;20153;-79
2022/11/17 03:00:33;;;;;;;7.50;2.13;;;;;;;;;;5144530;27;20047;-78
2022/11/17 03:03:09;;;;;;;5.57;2.22;;;;;;;;;;5141459;27;20524;-78
2022/11/17 03:05:52;;;;;;;4.43;2.30;;;;;;;;;;5144349;27;20059;-78
2022/11/17 03:08:25;;;;;;;9.43;2.60;;;;;;;;;;5137839;27;20047;-78
2022/11/17 03:11:01;;;;;;;6.93;2.30;;;;;;;;;;5143976;27;20111;-78
2022/11/17 03:13:43;;;;;;;4.15;2.40;;;;;;;;;;5120237;27;20171;-77
2022/11/17 03:16:14;;;;;;;5.32;2.40;;;;;;;;;;5121521;27;20055;-78
2022/11/17 03:18:47;;;;;;;7.22;2.40;;;;;;;;;;5143765;27;20052;-78
2022/11/17 03:21:14;;;;;;;;;;;;;;;;;;5112464;27;20515;-78
2022/11/17 03:23:44;;;;;;;5.82;1.85;;;;;;;;;;5123352;27;46449;-79
2022/11/17 03:26:13;;;;;;;10.63;2.47;;;;;;;;;;5122565;27;20052;-78
2022/11/17 03:28:42;;;;;;;4.32;2.10;;;;;;;;;;5101387;27;20878;-78
2022/11/17 03:31:10;;;;;;;5.95;2.25;;;;;;;;;;5116122;27;20059;-78
2022/11/17 03:33:38;;;;;;;7.22;2.03;;;;;;;;;;5108049;27;20051;-78
2022/11/17 03:36:09;;;;;;;5.72;2.20;;;;;;;;;;5122047;27;20052;-78
2022/11/17 03:38:39;;;;;;;5.55;2.30;;;;;;;;;;5126138;27;20048;-78
2022/11/17 03:41:10;;;;;;;8.30;2.60;;;;;;;;;;5114619;27;20051;-78
2022/11/17 03:43:38;;;;;;;6.82;2.60;;;;;;;;;;5117753;27;20051;-78
2022/11/17 03:46:16;;;;;;;10.52;2.55;;;;;;;;;;5124185;27;20058;-78
2022/11/17 03:48:50;;;;;;;6.20;2.17;;;;;;;;;;5125149;27;20044;-78
2022/11/17 03:51:28;;;;;;;7.10;2.30;;;;;;;;;;5124029;27;20055;-78
2022/11/17 03:53:55;;;;;;;3.42;2.10;;;;;;;;;;5126837;27;20052;-78
2022/11/17 03:56:22;;;;;;;8.38;2.15;;;;;;;;;;5100702;27;20039;-78
2022/11/17 03:58:54;;;;;;;3.30;2.20;;;;;;;;;;5120939;27;20043;-78
2022/11/17 04:01:22;;;;;;;5.82;2.20;;;;;;;;;;5124932;27;20056;-78
2022/11/17 04:03:49;;;;;;;3.83;2.00;;;;;;;;;;5119367;27;20051;-78
2022/11/17 04:06:16;;;;;;;7.22;2.10;;;;;;;;;;5118528;27;20530;-77
2022/11/17 04:08:43;;;;;;;3.65;2.00;;;;;;;;;;5120831;27;20052;-78
2022/11/17 04:16:44;;;;;;;3.40;1.80;;;;;;;;;;5125731;27;20059;-77
2022/11/17 04:19:11;;;;;;;7.10;2.13;;;;;;;;;;5109822;27;20048;-78
2022/11/17 04:21:38;;;;;;;3.47;2.10;;;;;;;;;;5137822;27;20055;-78
2022/11/17 04:24:06;;;;;;;4.82;2.00;;;;;;;;;;5128173;27;20043;-77
2022/11/17 04:29:19;;;;;;;2.88;1.95;;;;;;;;;;5133169;27;20043;-77
2022/11/17 04:31:46;;;;;;;4.00;1.60;;;;;;;;;;5138605;27;20107;-77
2022/11/17 04:34:13;;;;;;;5.45;2.03;;;;;;;;;;5139773;27;20050;-77
2022/11/17 04:36:45;;;;;;;4.53;2.22;;;;;;;;;;5125205;27;20051;-77
2022/11/17 04:39:13;;;;;;;4.65;2.00;;;;;;;;;;5130996;27;20056;-77
2022/11/17 04:41:53;;;;;;;4.47;2.10;;;;;;;;;;5143051;27;20070;-77
2022/11/17 04:44:22;;;;;;;7.05;1.77;;;;;;;;;;5139541;27;20055;-77
2022/11/17 04:46:49;;;;;;;7.13;2.20;;;;;;;;;;5142032;27;20050;-77
2022/11/17 04:49:18;;;;;;;6.20;1.85;;;;;;;;;;5143718;27;20166;-77
2022/11/17 04:51:45;;;;;;;4.30;1.80;;;;;;;;;;5132787;27;20081;-77
2022/11/17 04:54:13;;;;;;;3.95;1.92;;;;;;;;;;5144750;27;20054;-77
2022/11/17 04:56:41;;;;;;;4.72;1.95;;;;;;;;;;5142080;27;20043;-77
2022/11/17 04:59:09;;;;;;;4.00;1.92;;;;;;;;;;5138757;27;20079;-77
2022/11/17 05:01:36;;;;;;;4.55;1.60;;;;;;;;;;5137017;27;20047;-77
2022/11/17 05:04:08;;;;;;;5.72;1.90;;;;;;;;;;5140381;27;20047;-77
2022/11/17 05:06:36;;;;;;;5.25;1.60;;;;;;;;;;5138447;27;20195;-77
2022/11/17 05:09:06;;;;;;;3.97;1.92;;;;;;;;;;5142667;27;20212;-77
2022/11/17 05:14:20;;;;;;;12.27;1.80;;;;;;;;;;5142872;27;20043;-77
2022/11/17 05:19:47;;;;;;;5.25;1.60;;;;;;;;;;5137431;27;20040;-77
2022/11/17 05:25:04;;;;;;;4.47;1.63;;;;;;;;;;5132140;27;20059;-77
2022/11/17 05:27:33;;;;;;;3.22;1.90;;;;;;;;;;5146092;27;20055;-77
2022/11/17 05:30:00;;;;;;;3.67;1.90;;;;;;;;;;5138164;27;20097;-77
2022/11/17 05:32:28;;;;;;;8.18;2.20;;;;;;;;;;5120057;27;20052;-77
2022/11/17 05:34:55;;;;;;;7.65;2.55;;;;;;;;;;5145683;27;20070;-77
2022/11/17 05:37:22;;;;;;;5.28;2.45;;;;;;;;;;5135620;27;20938;-76
2022/11/17 05:39:50;;;;;;;5.72;2.20;;;;;;;;;;5141347;27;20104;-77
2022/11/17 05:42:17;;;;;;;5.60;2.10;;;;;;;;;;5138928;27;20171;-77
2022/11/17 05:44:47;;;;;;;7.32;2.00;;;;;;;;;;5137976;27;20052;-77
2022/11/17 05:47:15;;;;;;;4.22;1.90;;;;;;;;;;5145211;27;20094;-77
2022/11/17 05:49:42;;;;;;;5.43;2.10;;;;;;;;;;5124561;27;20135;-77
2022/11/17 05:52:10;;;;;;;5.38;2.20;;;;;;;;;;5141730;27;20058;-77
2022/11/17 05:54:37;;;;;;;5.82;3.05;;;;;;;;;;5132228;27;20048;-77
2022/11/17 05:57:08;;;;;;;5.00;2.03;;;;;;;;;;5144055;27;20060;-78
2022/11/17 05:59:35;;;;;;;5.00;2.03;;;;;;;;;;5141152;27;20071;-77
2022/11/17 06:02:06;;;;;;;5.82;2.10;;;;;;;;;;5143219;27;20050;-77
2022/11/17 06:04:34;;;;;;;5.75;2.00;;;;;;;;;;5144977;27;20062;-78
2022/11/17 06:07:02;;;;;;;7.18;2.20;;;;;;;;;;5139442;27;20039;-77
2022/11/17 06:09:31;;;;;;;5.28;1.98;;;;;;;;;;5148459;27;20054;-77
2022/11/17 06:12:01;;;;;;;4.93;2.10;;;;;;;;;;5143208;27;20047;-78
2022/11/17 06:14:33;;;;;;;8.57;2.20;;;;;;;;;;5143057;27;20047;-78
2022/11/17 06:17:04;;;;;;;7.70;2.65;;;;;;;;;;5127764;27;20047;-78
2022/11/17 06:19:37;;;;;;;2.92;1.92;;;;;;;;;;5120459;27;21063;-77
2022/11/17 06:22:05;;;;;;;4.53;2.15;;;;;;;;;;5146867;27;20054;-77
2022/11/17 06:24:41;;;;;;;5.15;2.13;;;;;;;;;;5141487;27;20061;-77
2022/11/17 06:27:09;;;;;;;6.88;1.80;;;;;;;;;;5127639;27;20052;-77
2022/11/17 06:29:37;;;;;;;7.68;1.73;;;;;;;;;;5148444;27;20130;-77
2022/11/17 06:32:10;;;;;;;;;;;;;;;;;;5140613;27;20495;-77
2022/11/17 06:34:37;;;;;;;5.55;2.03;;;;;;;;;;5142063;27;43756;-77
2022/11/17 06:37:04;;;;;;;8.30;1.90;;;;;;;;;;5140818;27;20051;-78
2022/11/17 06:39:35;;;;;;;6.55;1.95;;;;;;;;;;5142799;27;20051;-77
2022/11/17 06:42:05;;;;;;;9.85;2.25;;;;;;;;;;5144194;27;20054;-77
2022/11/17 06:44:32;;;;;;;5.78;1.60;;;;;;;;;;5147112;27;20492;-77
2022/11/17 06:46:59;;;;;;;7.93;2.03;;;;;;;;;;5143392;27;20051;-77
2022/11/17 06:49:26;;;;;;;8.30;1.70;;;;;;;;;;5147245;27;20051;-78
2022/11/17 06:51:54;;;;;;;9.48;1.77;;;;;;;;;;5147301;27;20062;-78
2022/11/17 06:54:21;;;;;;;10.52;1.70;;;;;;;;;;5125972;27;20167;-78
2022/11/17 06:56:50;;;;;;;4.00;1.25;;;;;;;;;;5126179;27;20071;-78
2022/11/17 06:59:17;;;;;;;8.85;1.63;;;;;;;;;;5123898;27;20103;-78
2022/11/17 07:01:44;;;;;;;8.55;1.50;;;;;;;;;;5151903;27;20039;-78
2022/11/17 07:04:12;;;;;;;11.18;1.95;;;;;;;;;;5141497;27;20055;-78
2022/11/17 07:06:39;;;;;;;13.00;1.80;;;;;;;;;;5144718;27;20047;-77
2022/11/17 07:09:06;;;;;;;8.48;1.88;;;;;;;;;;5150412;27;20039;-77
2022/11/17 07:11:35;;;;;;;13.95;1.75;;;;;;;;;;5136389;27;20497;-78
2022/11/17 07:14:05;;;;;;;9.00;1.52;;;;;;;;;;5146523;27;20050;-78
2022/11/17 07:16:33;;;;;;;10.77;1.92;;;;;;;;;;5146575;27;20054;-77
2022/11/17 07:19:03;;;;;;;8.13;1.60;;;;;;;;;;5140319;27;20059;-78
2022/11/17 07:21:54;;;;;;;10.32;1.77;;;;;;;;;;5120206;27;20512;-78
2022/11/17 07:24:22;;;;;;;11.65;1.83;;;;;;;;;;5146964;27;20051;-78
2022/11/17 07:26:53;;;;;;;9.32;1.75;;;;;;;;;;5136427;27;20062;-78
2022/11/17 07:29:20;;;;;;;5.38;1.70;;;;;;;;;;5140334;27;20051;-78
2022/11/17 07:31:51;;;;;;;12.50;1.40;;;;;;;;;;5135383;27;20150;-78
2022/11/17 07:34:18;;;;;;;13.18;1.58;;;;;;;;;;5142768;27;20054;-78
2022/11/17 07:36:45;;;;;;;7.63;1.60;;;;;;;;;;5144099;27;20557;-78
2022/11/17 07:39:14;;;;;;;10.13;1.63;;;;;;;;;;5143137;27;20055;-78
2022/11/17 07:41:47;;;;;;;7.90;1.98;;;;;;;;;;5141859;27;20565;-78
2022/11/17 07:44:15;;;;;;;7.45;1.60;;;;;;;;;;5141300;27;20058;-78
2022/11/17 07:46:42;;;;;;;5.35;1.52;;;;;;;;;;5135624;27;20488;-79
2022/11/17 07:49:10;;;;;;;10.30;1.27;;;;;;;;;;5140724;27;20085;-78
2022/11/17 07:51:38;;;;;;;2.88;1.40;;;;;;;;;;5142753;27;20704;-78
2022/11/17 07:54:05;;;;;;;8.57;1.73;;;;;;;;;;5139974;27;20052;-78
2022/11/17 07:56:33;;;;;;;11.98;1.70;;;;;;;;;;5140293;27;20159;-78
2022/11/17 07:59:03;;;;;;;5.07;1.33;;;;;;;;;;5124614;27;20043;-78
2022/11/17 08:01:31;;;;;;;9.43;1.27;;;;;;;;;;5144957;27;20684;-78
2022/11/17 08:04:00;;;;;;;6.15;1.00;;;;;;;;;;5129593;27;20047;-78
2022/11/17 08:06:29;;;;;;;5.07;1.10;;;;;;;;;;5146118;27;20058;-78
2022/11/17 08:08:56;;;;;;;5.35;1.15;;;;;;;;;;5142061;27;20055;-79
2022/11/17 08:11:26;;;;;;;7.25;1.20;;;;;;;;;;5144336;27;20112;-78
2022/11/17 08:13:54;;;;;;;4.97;1.52;;;;;;;;;;5123730;27;21108;-79
2022/11/17 08:16:21;;;;;;;6.47;1.13;;;;;;;;;;5145335;27;20105;-78
2022/11/17 08:18:48;;;;;;;8.80;1.38;;;;;;;;;;5147490;27;20051;-78
2022/11/17 08:21:19;;;;;;;8.45;1.55;;;;;;;;;;5145987;27;20060;-78
2022/11/17 08:23:51;;;;;;;5.00;1.05;;;;;;;;;;5147631;27;20120;-79
2022/11/17 08:26:23;;;;;;;5.75;1.13;;;;;;;;;;5130858;27;20062;-78
2022/11/17 08:28:55;;;;;;;9.88;1.60;;;;;;;;;;5138070;27;20048;-79
2022/11/17 08:31:28;;;;;;;4.72;1.10;;;;;;;;;;5128635;27;20047;-78
2022/11/17 08:33:55;;;;;;;9.10;1.45;;;;;;;;;;5143822;27;20043;-79
2022/11/17 08:36:23;;;;;;;4.63;1.20;;;;;;;;;;5140556;27;20142;-78
2022/11/17 08:38:53;;;;;;;12.25;1.45;;;;;;;;;;5131714;27;20054;-79
2022/11/17 08:41:20;;;;;;;5.45;1.33;;;;;;;;;;5146359;27;20051;-79
2022/11/17 08:43:50;;;;;;;5.10;1.30;;;;;;;;;;5147467;27;20082;-79
2022/11/17 08:46:18;;;;;;;7.70;1.30;;;;;;;;;;5148921;27;20646;-79
2022/11/17 08:48:47;;;;;;;7.43;1.40;;;;;;;;;;5146356;27;20508;-79
2022/11/17 08:51:23;;;;;;;5.00;1.40;;;;;;;;;;5146517;27;20077;-79
2022/11/17 08:53:51;;;;;;;9.43;1.77;;;;;;;;;;5128204;27;21975;-79
2022/11/17 08:56:21;;;;;;;5.38;1.20;;;;;;;;;;5129104;27;20092;-79
2022/11/17 08:58:56;;;;;;;9.38;1.42;;;;;;;;;;5130267;27;20046;-79
2022/11/17 09:01:26;;;;;;;5.43;1.52;;;;;;;;;;5139067;27;20101;-78
2022/11/17 09:03:53;;;;;;;5.80;1.50;;;;;;;;;;5141935;27;20054;-79
2022/11/17 09:06:21;;;;;;;4.60;1.70;;;;;;;;;;5122245;27;20093;-78
2022/11/17 09:08:48;;;;;;;3.75;1.30;;;;;;;;;;5131089;27;20051;-78
2022/11/17 09:11:17;;;;;;;4.57;1.80;;;;;;;;;;5143637;27;20047;-79
2022/11/17 09:13:45;;;;;;;7.20;1.33;;;;;;;;;;5125314;27;20090;-80
2022/11/17 09:16:13;;;;;;;5.30;1.40;;;;;;;;;;5143142;27;20095;-79
2022/11/17 09:18:44;;;;;;;4.13;1.45;;;;;;;;;;5143502;27;20054;-79
2022/11/17 09:21:14;;;;;;;5.80;1.45;;;;;;;;;;5135124;27;20108;-79
2022/11/17 09:23:44;;;;;;;5.93;1.50;;;;;;;;;;5140210;27;20104;-78
2022/11/17 09:26:12;;;;;;;7.40;1.63;;;;;;;;;;5146408;27;20055;-79
2022/11/17 09:28:40;;;;;;;3.50;1.23;;;;;;;;;;5128995;27;20036;-79
2022/11/17 09:31:09;;;;;;;5.80;1.50;;;;;;;;;;5143431;27;20054;-79
2022/11/17 09:33:37;;;;;;;2.92;1.25;;;;;;;;;;5124861;27;20046;-79
2022/11/17 09:36:06;;;;;;;3.83;1.33;;;;;;;;;;5147708;27;20032;-79
2022/11/17 09:38:33;;;;;;;4.35;1.20;;;;;;;;;;5150374;27;20042;-79
2022/11/17 09:41:09;;;;;;;3.22;1.35;;;;;;;;;;5124499;27;20051;-79
2022/11/17 09:43:38;;;;;;;4.22;1.40;;;;;;;;;;5129971;27;20048;-79
2022/11/17 09:46:10;;;;;;;4.72;1.50;;;;;;;;;;5140887;27;20081;-79
2022/11/17 09:49:03;;;;;;;17.63;3.60;;;;;;;;;;5143583;27;20085;-79
2022/11/17 09:51:34;;;;;;;8.97;2.10;;;;;;;;;;5115767;27;20057;-79
2022/11/17 09:54:34;;;;;;;6.05;1.60;;;;;;;;;;5140373;27;20287;-79
2022/11/17 09:57:03;;;;;;;4.20;1.50;;;;;;;;;;5074727;28;20880;-79
2022/11/17 09:59:32;;;;;;;7.35;1.30;;;;;;;;;;5050539;28;20049;-79
2022/11/17 10:01:59;;;;;;;8.10;1.63;;;;;;;;;;5068449;28;20049;-79
2022/11/17 10:04:29;;;;;;;7.65;1.30;;;;;;;;;;5071984;28;20052;-79
2022/11/17 10:06:57;;;;;;;6.35;1.48;;;;;;;;;;5077950;28;20045;-80
2022/11/17 10:09:34;;;;;;;5.68;1.40;;;;;;;;;;5069995;28;20053;-79
2022/11/17 10:12:19;;;;;;;12.02;1.73;;;;;;;;;;5058658;28;20813;-79
2022/11/17 10:14:48;;;;;;;4.15;1.60;;;;;;;;;;5068764;28;20103;-80
2022/11/17 10:17:15;;;;;;;8.05;1.60;;;;;;;;;;5065845;28;20418;-80
2022/11/17 10:19:45;;;;;;;8.32;1.50;;;;;;;;;;5064208;28;20049;-79
2022/11/17 10:22:23;;;;;;;3.13;1.20;;;;;;;;;;5049119;28;20049;-79
2022/11/17 10:24:57;;;;;;;5.72;1.20;;;;;;;;;;5044376;28;20177;-79
2022/11/17 10:27:29;;;;;;;8.85;1.33;;;;;;;;;;5037098;28;20048;-80
2022/11/17 10:30:14;;;;;;;6.72;1.23;;;;;;;;;;5042185;28;20057;-80
2022/11/17 10:32:52;;;;;;;4.90;1.45;;;;;;;;;;5071215;27;20067;-80
2022/11/17 10:35:21;;;;;;;4.50;1.48;;;;;;;;;;5112958;27;22744;-79
2022/11/17 10:37:52;;;;;;;4.30;1.25;;;;;;;;;;5131218;27;20055;-80
2022/11/17 10:40:27;;;;;;;7.25;2.05;;;;;;;;;;5104152;27;20056;-80
2022/11/17 10:42:59;;;;;;;9.27;1.20;;;;;;;;;;5127220;27;20080;-80
2022/11/17 10:45:31;;;;;;;7.32;1.52;;;;;;;;;;5117344;27;20497;-79
2022/11/17 10:48:28;;;;;;;8.93;1.40;;;;;;;;;;5103947;27;20105;-80
2022/11/17 10:50:56;;;;;;;7.25;1.95;;;;;;;;;;5097127;27;20048;-81
2022/11/17 10:53:30;;;;;;;4.95;1.75;;;;;;;;;;5123908;27;20091;-79
2022/11/17 10:56:03;;;;;;;10.98;1.65;;;;;;;;;;5101872;27;20044;-80
2022/11/17 10:58:32;;;;;;;7.35;1.77;;;;;;;;;;5129313;27;20174;-79
2022/11/17 11:01:05;;;;;;;5.88;1.35;;;;;;;;;;5127272;27;20043;-79
2022/11/17 11:03:35;;;;;;;6.90;1.23;;;;;;;;;;5126058;27;20146;-79
2022/11/17 11:06:05;;;;;;;7.00;1.30;;;;;;;;;;5128102;27;20281;-79
2022/11/17 11:08:43;;;;;;;8.38;1.45;;;;;;;;;;5118680;27;20056;-79
2022/11/17 11:11:36;;;;;;;5.22;1.20;;;;;;;;;;5122196;27;20094;-79
2022/11/17 11:14:12;;;;;;;7.47;1.52;;;;;;;;;;5118339;27;20044;-79
2022/11/17 11:16:40;;;;;;;10.38;1.50;;;;;;;;;;5121467;27;20101;-79
2022/11/17 11:19:15;;;;;;;6.07;1.42;;;;;;;;;;5121693;27;20056;-79
2022/11/17 11:21:49;;;;;;;5.47;1.40;;;;;;;;;;5131450;27;20050;-79
2022/11/17 11:24:22;;;;;;;4.38;1.25;;;;;;;;;;5130535;27;20057;-79
2022/11/17 11:26:50;;;;;;;4.70;1.13;;;;;;;;;;5147623;27;20047;-79
2022/11/17 11:29:36;;;;;;;7.80;1.50;;;;;;;;;;5143237;27;20054;-79
2022/11/17 11:32:13;;;;;;;7.43;1.50;;;;;;;;;;5122576;27;20083;-79
2022/11/17 11:35:04;;;;;;;6.95;1.50;;;;;;;;;;5145341;27;20162;-79
2022/11/17 11:37:36;;;;;;;6.35;1.42;;;;;;;;;;5140788;27;20147;-80
2022/11/17 11:40:15;;;;;;;9.52;1.48;;;;;;;;;;5142747;27;20056;-80
2022/11/17 11:42:50;;;;;;;6.72;1.33;;;;;;;;;;5148716;27;20829;-79
2022/11/17 11:45:29;;;;;;;5.80;1.40;;;;;;;;;;5144144;27;20047;-79
2022/11/17 11:48:14;;;;;;;4.13;1.30;;;;;;;;;;5147904;27;20047;-80
2022/11/17 11:50:47;;;;;;;8.13;1.80;;;;;;;;;;5148170;27;20035;-80
2022/11/17 11:53:24;;;;;;;4.45;1.13;;;;;;;;;;5142183;27;20083;-79
2022/11/17 11:56:15;;;;;;;5.80;1.33;;;;;;;;;;5144612;27;20810;-80
2022/11/17 11:58:53;;;;;;;8.82;1.63;;;;;;;;;;5129544;27;20069;-80
2022/11/17 12:01:22;;;;;;;7.68;1.45;;;;;;;;;;5142305;27;20039;-80
2022/11/17 12:03:53;;;;;;;7.88;1.90;;;;;;;;;;5126745;27;20514;-80
2022/11/17 12:06:39;;;;;;;9.27;1.30;;;;;;;;;;5142977;27;20145;-80
2022/11/17 12:09:07;;;;;;;4.60;1.17;;;;;;;;;;5127272;27;20055;-79
2022/11/17 12:14:26;;;;;;;8.50;1.50;;;;;;;;;;5146324;27;20101;-79
2022/11/17 12:17:04;;;;;;;9.02;1.80;;;;;;;;;;5143285;27;20051;-80
2022/11/17 12:19:44;;;;;;;6.05;1.30;;;;;;;;;;5145699;27;20054;-79
2022/11/17 12:22:14;;;;;;;6.40;1.38;;;;;;;;;;5129607;27;20523;-80
2022/11/17 12:24:42;;;;;;;9.18;1.85;;;;;;;;;;5141400;27;20593;-79
2022/11/17 12:27:29;;;;;;;13.98;1.60;;;;;;;;;;5140966;27;20055;-79
2022/11/17 12:29:56;;;;;;;2.67;1.20;;;;;;;;;;5144643;27;20103;-80
2022/11/17 12:32:42;;;;;;;3.42;1.05;;;;;;;;;;5147839;27;20175;-80
2022/11/17 12:35:27;;;;;;;8.88;1.48;;;;;;;;;;5130992;27;20162;-80
2022/11/17 12:38:16;;;;;;;7.18;1.35;;;;;;;;;;5128955;27;20680;-80
2022/11/17 12:40:45;;;;;;;6.32;1.52;;;;;;;;;;5151604;27;20074;-80
2022/11/17 12:43:18;;;;;;;4.57;1.20;;;;;;;;;;5147245;27;20052;-79
2022/11/17 12:45:52;;;;;;;6.35;1.35;;;;;;;;;;5147794;27;20047;-80
2022/11/17 12:48:19;;;;;;;;;;;;;;;;;;5140052;27;20512;-80
2022/11/17 12:51:15;;;;;;;5.88;1.65;;;;;;;;;;5147237;27;44177;-79
2022/11/17 12:54:05;;;;;;;7.00;1.65;;;;;;;;;;5139977;27;20094;-79
2022/11/17 12:56:55;;;;;;;3.67;1.50;;;;;;;;;;5114488;27;20075;-80
2022/11/17 12:59:35;;;;;;;7.00;2.22;;;;;;;;;;5139217;27;20044;-80
2022/11/17 13:02:21;;;;;;;4.53;2.15;;;;;;;;;;5143624;27;20055;-80
2022/11/17 13:05:09;;;;;;;6.25;1.83;;;;;;;;;;5140515;27;20055;-80
2022/11/17 13:07:39;;;;;;;6.20;1.50;;;;;;;;;;5115882;27;20051;-80
2022/11/17 13:10:22;;;;;;;2.67;1.33;;;;;;;;;;5150213;27;20093;-80
2022/11/17 13:12:51;;;;;;;3.55;1.30;;;;;;;;;;5141046;27;20087;-80
2022/11/17 13:15:22;;;;;;;10.63;1.90;;;;;;;;;;5142447;27;20052;-80
2022/11/17 13:17:54;;;;;;;8.68;1.83;;;;;;;;;;5140921;27;20036;-80
2022/11/17 13:20:25;;;;;;;4.35;2.00;;;;;;;;;;5128119;27;20051;-80
2022/11/17 13:23:13;;;;;;;5.95;1.30;;;;;;;;;;5129871;27;20048;-80
2022/11/17 13:25:41;;;;;;;3.53;1.55;;;;;;;;;;5125467;27;20130;-80
2022/11/17 13:28:31;;;;;;;6.72;1.45;;;;;;;;;;5129045;27;20047;-79
2022/11/17 13:31:00;;;;;;;8.70;1.33;;;;;;;;;;5124938;27;20094;-80
2022/11/17 13:33:29;;;;;;;4.68;1.48;;;;;;;;;;5132884;27;20046;-80
2022/11/17 13:36:08;;;;;;;5.82;1.65;;;;;;;;;;5142325;27;20504;-80
2022/11/17 13:38:35;;;;;;;6.57;1.65;;;;;;;;;;5147980;27;20071;-80
2022/11/17 13:41:03;;;;;;;5.68;1.48;;;;;;;;;;5129426;27;20061;-80
2022/11/17 13:43:36;;;;;;;8.35;1.70;;;;;;;;;;5128119;27;20679;-79
2022/11/17 13:46:05;;;;;;;3.40;1.20;;;;;;;;;;5144424;27;20174;-80
2022/11/17 13:48:33;;;;;;;7.32;2.15;;;;;;;;;;5147170;27;20087;-80
2022/11/17 13:51:19;;;;;;;7.45;1.50;;;;;;;;;;5142575;27;20081;-79
2022/11/17 13:53:49;;;;;;;8.38;1.77;;;;;;;;;;5143802;27;20069;-80
2022/11/17 13:56:27;;;;;;;5.40;1.75;;;;;;;;;;5128265;27;21172;-80
2022/11/17 13:58:59;;;;;;;9.23;1.80;;;;;;;;;;5144757;27;20043;-80
2022/11/17 14:01:31;;;;;;;6.97;1.60;;;;;;;;;;5126492;27;20148;-80
2022/11/17 14:04:20;;;;;;;8.00;2.00;;;;;;;;;;5148857;27;20303;-80
2022/11/17 14:06:58;;;;;;;9.77;1.58;;;;;;;;;;5141228;27;20117;-80
2022/11/17 14:09:34;;;;;;;6.40;2.33;;;;;;;;;;5148991;27;20142;-80
2022/11/17 14:12:08;;;;;;;15.23;3.55;;;;;;;;;;5143066;27;20048;-80
2022/11/17 14:14:38;;;;;;;8.63;2.10;;;;;;;;;;5144839;27;20435;-80
2022/11/17 14:17:13;;;;;;;5.97;1.63;;;;;;;;;;5141741;27;20061;-80
2022/11/17 14:19:41;;;;;;;5.30;1.50;;;;;;;;;;5146780;27;20051;-79
2022/11/17 14:22:10;;;;;;;6.22;1.50;;;;;;;;;;5138511;27;20893;-79
2022/11/17 14:24:50;;;;;;;4.03;1.70;;;;;;;;;;5154610;27;20051;-79
2022/11/17 14:27:26;;;;;;;6.55;2.10;;;;;;;;;;5144185;27;20836;-81
2022/11/17 14:29:56;;;;;;;5.25;1.70;;;;;;;;;;5131412;27;20083;-81
2022/11/17 14:32:23;;;;;;;3.60;1.48;;;;;;;;;;5143925;27;20125;-80
2022/11/17 14:34:57;;;;;;;7.43;2.00;;;;;;;;;;5141402;27;20062;-80
2022/11/17 14:37:25;;;;;;;6.40;1.75;;;;;;;;;;5141995;27;20525;-80
2022/11/17 14:39:52;;;;;;;4.30;1.30;;;;;;;;;;5151059;27;20051;-80
2022/11/17 14:42:23;;;;;;;4.45;1.50;;;;;;;;;;5149142;27;20039;-80
2022/11/17 14:44:55;;;;;;;5.95;1.75;;;;;;;;;;5143598;27;20496;-80
2022/11/17 14:47:22;;;;;;;6.50;1.80;;;;;;;;;;5143860;27;20514;-80
2022/11/17 14:49:58;;;;;;;4.45;1.55;;;;;;;;;;5131277;27;20051;-80
2022/11/17 14:52:25;;;;;;;3.78;2.00;;;;;;;;;;5141270;27;20047;-80
2022/11/17 14:54:54;;;;;;;8.00;1.83;;;;;;;;;;5147364;27;20047;-80
2022/11/17 14:57:35;;;;;;;4.22;1.52;;;;;;;;;;5125597;27;20858;-80
2022/11/17 15:00:06;;;;;;;7.32;1.60;;;;;;;;;;5146521;27;20518;-80
2022/11/17 15:02:36;;;;;;;6.63;2.10;;;;;;;;;;5135190;27;20055;-80
2022/11/17 15:05:05;;;;;;;8.43;2.13;;;;;;;;;;5148505;27;20047;-80
2022/11/17 15:07:33;;;;;;;9.63;1.63;;;;;;;;;;5134650;27;20067;-80
2022/11/17 15:10:07;;;;;;;5.32;1.33;;;;;;;;;;5151929;27;20031;-80
2022/11/17 15:12:35;;;;;;;9.43;1.60;;;;;;;;;;5147255;27;20503;-80
2022/11/17 15:15:03;;;;;;;5.40;1.20;;;;;;;;;;5152100;27;20835;-80
2022/11/17 15:17:33;;;;;;;6.82;1.45;;;;;;;;;;5145682;27;20058;-80
2022/11/17 15:20:02;;;;;;;4.82;1.20;;;;;;;;;;5139323;27;20051;-80
2022/11/17 15:22:32;;;;;;;3.15;1.10;;;;;;;;;;5147519;27;20051;-80
2022/11/17 15:24:59;;;;;;;3.65;1.40;;;;;;;;;;5135947;27;20065;-80
2022/11/17 15:27:26;;;;;;;5.65;1.10;;;;;;;;;;5145093;27;20035;-80
2022/11/17 15:29:56;;;;;;;2.05;1.00;;;;;;;;;;5144654;27;20047;-80
2022/11/17 15:32:26;;;;;;;3.30;1.00;;;;;;;;;;5145638;27;20142;-79
2022/11/17 15:34:53;;;;;;;6.00;1.27;;;;;;;;;;5157004;27;20055;-79
2022/11/17 15:37:20;;;;;;;3.22;1.35;;;;;;;;;;5154065;27;20074;-80
2022/11/17 15:39:48;;;;;;;3.28;1.25;;;;;;;;;;5129960;27;20055;-80